Time;durP1;ratioP1;P1;durP2;ratioP2;P2;SDS_P1;SDS_P2;PMS_P1;PMS_P2;Temp;Humidity;BMP_temperature;BMP_pressure;BME280_temperature;BME280_humidity;BME280_pressure;Samples;Min_cycle;Max_cycle;Signal;HPM_P1;HPM_P2
2023/10/18 00:00:25;;;;;;;19.17;12.03;;;3.30;99.90;;;;;;5047856;28;20209;-48
2023/10/18 00:02:52;;;;;;;21.63;13.03;;;3.30;99.90;;;;;;5053103;28;20443;-47
2023/10/18 00:05:20;;;;;;;23.77;12.67;;;3.30;99.90;;;;;;5052552;28;20498;-47
2023/10/18 00:07:46;;;;;;;17.70;11.10;;;3.20;99.90;;;;;;5051999;28;20505;-47
2023/10/18 00:10:12;;;;;;;19.53;11.87;;;3.30;99.90;;;;;;5051852;28;20474;-48
2023/10/18 00:12:39;;;;;;;21.30;12.00;;;3.30;99.90;;;;;;5051334;28;20223;-48
2023/10/18 00:15:06;;;;;;;19.63;11.60;;;3.30;99.90;;;;;;5053231;28;20424;-47
2023/10/18 00:17:32;;;;;;;26.43;12.07;;;3.30;99.90;;;;;;5048792;28;20448;-47
2023/10/18 00:19:57;;;;;;;20.30;11.87;;;3.20;99.90;;;;;;5033567;28;20425;-47
2023/10/18 00:22:23;;;;;;;24.73;11.43;;;3.20;99.90;;;;;;5045911;28;20538;-47
2023/10/18 00:24:49;;;;;;;23.10;11.13;;;3.20;99.90;;;;;;5054215;28;20186;-47
2023/10/18 00:27:14;;;;;;;19.53;10.80;;;3.10;99.90;;;;;;5053034;28;20226;-47
2023/10/18 00:29:40;;;;;;;22.43;10.83;;;3.10;99.90;;;;;;5052501;28;20197;-47
2023/10/18 00:32:06;;;;;;;17.13;11.07;;;3.10;99.90;;;;;;5050814;28;20198;-47
2023/10/18 00:34:32;;;;;;;18.43;10.57;;;3.00;99.90;;;;;;5052581;28;20189;-47
2023/10/18 00:36:58;;;;;;;17.03;10.40;;;3.00;99.90;;;;;;5051541;28;20932;-47
2023/10/18 00:39:27;;;;;;;15.93;10.53;;;3.00;99.90;;;;;;5050305;28;20451;-47
2023/10/18 00:42:23;;;;;;;17.37;10.60;;;3.00;99.90;;;;;;5045898;28;20958;-47
2023/10/18 00:44:41;;;;;;;20.90;11.60;;;3.00;99.90;;;;;;5053331;28;20757;-47
2023/10/18 00:47:13;;;;;;;19.33;11.40;;;2.90;99.90;;;;;;5052723;28;20441;-47
2023/10/18 00:49:39;;;;;;;21.50;11.07;;;2.90;99.90;;;;;;5051748;28;20644;-47
2023/10/18 00:52:06;;;;;;;21.43;11.90;;;2.90;99.90;;;;;;5051141;28;20513;-47
2023/10/18 00:54:32;;;;;;;14.77;9.47;;;2.90;99.90;;;;;;5052778;28;20201;-47
2023/10/18 00:56:58;;;;;;;18.80;10.40;;;2.90;99.90;;;;;;5052587;28;20451;-47
2023/10/18 00:59:26;;;;;;;17.73;10.10;;;2.90;99.90;;;;;;5050894;28;20529;-47
2023/10/18 01:02:03;;;;;;;20.13;10.70;;;2.80;99.90;;;;;;5040120;28;20223;-47
2023/10/18 01:04:31;;;;;;;19.50;11.60;;;2.80;99.90;;;;;;5054747;28;20782;-47
2023/10/18 01:07:05;;;;;;;19.40;11.67;;;2.80;99.90;;;;;;5055646;28;20454;-47
2023/10/18 01:09:31;;;;;;;17.20;11.90;;;2.80;99.90;;;;;;5055271;28;20466;-48
2023/10/18 01:11:56;;;;;;;18.80;10.27;;;2.80;99.90;;;;;;5055824;28;20953;-47
2023/10/18 01:14:25;;;;;;;18.60;10.27;;;2.80;99.90;;;;;;5056632;28;20643;-47
2023/10/18 01:16:53;;;;;;;21.37;11.07;;;2.80;99.90;;;;;;5055771;28;20642;-48
2023/10/18 01:19:19;;;;;;;14.30;10.20;;;2.70;99.90;;;;;;5056541;28;20786;-47
2023/10/18 01:21:49;;;;;;;24.30;11.70;;;2.70;99.90;;;;;;5056573;28;20456;-47
2023/10/18 01:24:16;;;;;;;22.40;12.20;;;2.70;99.90;;;;;;5053028;28;20197;-47
2023/10/18 01:26:42;;;;;;;17.43;10.63;;;2.70;99.90;;;;;;5046758;28;20500;-47
2023/10/18 01:29:10;;;;;;;22.03;11.80;;;2.70;99.90;;;;;;5036990;28;20478;-47
2023/10/18 01:31:43;;;;;;;19.20;12.37;;;2.80;99.90;;;;;;5037163;28;20430;-47
2023/10/18 01:34:10;;;;;;;23.80;12.27;;;2.80;99.90;;;;;;5037258;28;20460;-47
2023/10/18 01:36:38;;;;;;;15.90;10.50;;;2.80;99.90;;;;;;5053689;28;20466;-47
2023/10/18 01:39:20;;;;;;;18.60;10.73;;;2.80;99.90;;;;;;5053537;28;20933;-48
2023/10/18 01:41:55;;;;;;;17.83;11.00;;;2.80;99.90;;;;;;5036946;28;20553;-47
2023/10/18 01:44:33;;;;;;;18.53;11.60;;;2.90;99.90;;;;;;5052094;28;20443;-47
2023/10/18 01:47:09;;;;;;;16.33;10.90;;;2.80;99.90;;;;;;5055810;28;20439;-47
2023/10/18 01:49:46;;;;;;;19.17;11.03;;;2.90;99.90;;;;;;5055580;28;20451;-47
2023/10/18 01:52:12;;;;;;;18.77;11.47;;;2.90;99.90;;;;;;5053927;28;20483;-47
2023/10/18 01:54:38;;;;;;;18.07;10.40;;;2.80;99.90;;;;;;5055558;28;20444;-48
2023/10/18 01:57:06;;;;;;;18.10;11.17;;;2.90;99.90;;;;;;5053960;28;20459;-48
2023/10/18 01:59:34;;;;;;;20.83;11.33;;;2.90;99.90;;;;;;5055283;28;20973;-47
2023/10/18 02:02:00;;;;;;;20.00;10.33;;;2.90;99.90;;;;;;5053944;28;20980;-47
2023/10/18 02:04:27;;;;;;;15.20;10.77;;;2.90;99.90;;;;;;5055829;28;20440;-47
2023/10/18 02:07:02;;;;;;;21.23;10.47;;;2.90;99.90;;;;;;5055175;28;20980;-47
2023/10/18 02:09:36;;;;;;;19.70;11.17;;;2.90;99.90;;;;;;5055735;28;20523;-47
2023/10/18 02:12:05;;;;;;;20.47;11.43;;;2.90;99.90;;;;;;5053850;28;20437;-47
2023/10/18 02:14:33;;;;;;;20.03;10.57;;;2.80;99.90;;;;;;5054241;28;20451;-47
2023/10/18 02:17:00;;;;;;;17.13;10.70;;;2.80;99.90;;;;;;5055426;28;20462;-47
2023/10/18 02:19:27;;;;;;;19.97;10.60;;;2.80;99.90;;;;;;5055934;28;20447;-47
2023/10/18 02:21:59;;;;;;;15.87;10.60;;;2.80;99.90;;;;;;5054098;28;20853;-47
2023/10/18 02:24:25;;;;;;;15.40;10.33;;;2.80;99.90;;;;;;5056261;28;20410;-47
2023/10/18 02:26:56;;;;;;;17.40;10.70;;;2.80;99.90;;;;;;5054997;28;20830;-48
2023/10/18 02:29:22;;;;;;;19.30;11.57;;;2.80;99.90;;;;;;5054904;28;20276;-47
2023/10/18 02:31:56;;;;;;;17.57;11.50;;;2.80;99.90;;;;;;5052794;28;20445;-48
2023/10/18 02:34:24;;;;;;;23.13;11.33;;;2.80;99.90;;;;;;5055148;28;20445;-47
2023/10/18 02:36:51;;;;;;;17.87;11.50;;;2.70;99.90;;;;;;5053840;28;20472;-48
2023/10/18 02:39:27;;;;;;;16.17;10.77;;;2.70;99.90;;;;;;5055127;28;20551;-47
2023/10/18 02:41:55;;;;;;;18.00;11.87;;;2.80;99.90;;;;;;5050602;28;20483;-48
2023/10/18 02:44:21;;;;;;;18.33;11.50;;;2.80;99.90;;;;;;5035516;28;20511;-47
2023/10/18 02:46:54;;;;;;;22.07;11.47;;;2.80;99.90;;;;;;5049015;28;20860;-47
2023/10/18 02:49:27;;;;;;;20.57;11.63;;;2.80;99.90;;;;;;5054416;28;20444;-48
2023/10/18 02:51:53;;;;;;;16.23;11.33;;;2.80;99.90;;;;;;5051764;28;20569;-48
2023/10/18 02:54:22;;;;;;;22.03;11.67;;;2.80;99.90;;;;;;5054007;28;20530;-47
2023/10/18 02:56:50;;;;;;;17.00;11.50;;;2.80;99.90;;;;;;5053943;28;20501;-47
2023/10/18 02:59:24;;;;;;;20.50;10.80;;;2.80;99.90;;;;;;5040318;28;20539;-47
2023/10/18 03:01:55;;;;;;;20.83;10.23;;;2.80;99.90;;;;;;5053263;28;20514;-48
2023/10/18 03:04:22;;;;;;;19.37;10.33;;;2.80;99.90;;;;;;5052991;28;20959;-48
2023/10/18 03:06:50;;;;;;;15.03;9.97;;;2.80;99.90;;;;;;5043411;28;20851;-48
2023/10/18 03:09:38;;;;;;;15.43;9.50;;;2.80;99.90;;;;;;5054561;28;20409;-46
2023/10/18 03:12:06;;;;;;;15.90;9.20;;;2.70;99.90;;;;;;5050812;28;20908;-47
2023/10/18 03:14:39;;;;;;;13.63;9.30;;;2.70;99.90;;;;;;5052907;28;20459;-48
2023/10/18 03:17:18;;;;;;;12.60;8.70;;;2.70;99.90;;;;;;5054137;28;20448;-48
2023/10/18 03:19:44;;;;;;;13.90;9.93;;;2.70;99.90;;;;;;5054001;28;20509;-47
2023/10/18 03:22:10;;;;;;;15.73;9.23;;;2.70;99.90;;;;;;5048972;28;20476;-46
2023/10/18 03:24:37;;;;;;;18.53;10.33;;;2.60;99.90;;;;;;5054123;28;20417;-48
2023/10/18 03:27:08;;;;;;;14.07;10.33;;;2.60;99.90;;;;;;5054007;28;20455;-46
2023/10/18 03:29:37;;;;;;;17.23;10.13;;;2.60;99.90;;;;;;5055044;28;20443;-46
2023/10/18 03:32:06;;;;;;;19.50;9.37;;;2.60;99.90;;;;;;5051655;28;20938;-47
2023/10/18 03:34:41;;;;;;;13.43;9.20;;;2.60;99.90;;;;;;5037265;28;20824;-46
2023/10/18 03:37:18;;;;;;;15.17;10.17;;;2.60;99.90;;;;;;5052692;28;20434;-47
2023/10/18 03:39:46;;;;;;;14.27;9.23;;;2.50;99.90;;;;;;5054216;28;20433;-46
2023/10/18 03:42:26;;;;;;;17.00;9.87;;;2.50;99.90;;;;;;5049854;28;20830;-46
2023/10/18 03:44:52;;;;;;;19.57;9.93;;;2.50;99.90;;;;;;5043311;28;20471;-46
2023/10/18 03:47:24;;;;;;;17.27;9.40;;;2.50;99.90;;;;;;5053639;28;20473;-47
2023/10/18 03:49:53;;;;;;;13.70;9.50;;;2.60;99.90;;;;;;5052508;28;20555;-47
2023/10/18 03:52:19;;;;;;;17.63;9.93;;;2.60;99.90;;;;;;5051191;28;20855;-47
2023/10/18 03:55:04;;;;;;;12.63;8.83;;;2.60;99.90;;;;;;5053752;28;20415;-47
2023/10/18 03:57:37;;;;;;;13.97;8.90;;;2.60;99.90;;;;;;5041468;28;20451;-47
2023/10/18 04:02:56;;;;;;;16.47;8.90;;;2.60;99.90;;;;;;5043617;28;20454;-47
2023/10/18 04:08:04;;;;;;;15.60;9.63;;;2.50;99.90;;;;;;5053707;28;20484;-46
2023/10/18 04:10:31;;;;;;;15.93;10.73;;;2.50;99.90;;;;;;5054109;28;20905;-46
2023/10/18 04:12:57;;;;;;;16.40;10.20;;;2.50;99.90;;;;;;5050779;28;20470;-46
2023/10/18 04:15:23;;;;;;;15.70;10.83;;;2.60;99.90;;;;;;5054009;28;20470;-46
2023/10/18 04:20:52;;;;;;;13.40;8.90;;;2.50;99.90;;;;;;4952136;29;20481;-47
2023/10/18 04:23:35;;;;;;;20.43;10.77;;;2.50;99.90;;;;;;5030474;28;20460;-46
2023/10/18 04:26:01;;;;;;;16.67;9.40;;;2.60;99.90;;;;;;5052141;28;20848;-46
2023/10/18 04:28:29;;;;;;;15.47;9.60;;;2.50;99.90;;;;;;5052946;28;20476;-47
2023/10/18 04:31:01;;;;;;;15.80;9.87;;;2.50;99.90;;;;;;5053522;28;20645;-46
2023/10/18 04:33:41;;;;;;;14.30;9.63;;;2.50;99.90;;;;;;5051814;28;20517;-46
2023/10/18 04:36:16;;;;;;;16.53;11.17;;;2.40;99.90;;;;;;5053882;28;20498;-47
2023/10/18 04:38:43;;;;;;;16.90;10.97;;;2.40;99.90;;;;;;5041078;28;20435;-47
2023/10/18 04:41:10;;;;;;;17.30;10.50;;;2.40;99.90;;;;;;5052193;28;20491;-47
2023/10/18 04:43:37;;;;;;;17.50;10.73;;;2.40;99.90;;;;;;5051776;28;20531;-47
2023/10/18 04:53:57;;;;;;;15.40;10.30;;;2.50;99.90;;;;;;5049747;28;20448;-48
2023/10/18 04:56:29;;;;;;;18.73;10.90;;;2.50;99.90;;;;;;5033688;28;20429;-47
2023/10/18 04:58:59;;;;;;;15.53;8.87;;;2.40;99.90;;;;;;5048630;28;20929;-47
2023/10/18 05:01:32;;;;;;;15.57;10.57;;;2.40;99.90;;;;;;5050357;28;20475;-47
2023/10/18 05:04:00;;;;;;;13.50;9.90;;;2.30;99.90;;;;;;5051262;28;20498;-47
2023/10/18 05:06:29;;;;;;;17.07;10.77;;;2.30;99.90;;;;;;5052627;28;20510;-48
2023/10/18 05:08:56;;;;;;;16.10;10.90;;;2.30;99.90;;;;;;5052694;28;20563;-47
2023/10/18 05:11:24;;;;;;;21.13;11.37;;;2.30;99.90;;;;;;5053565;28;20435;-47
2023/10/18 05:13:49;;;;;;;18.63;11.83;;;2.30;99.90;;;;;;5050421;28;20451;-47
2023/10/18 05:16:16;;;;;;;16.17;10.93;;;2.30;99.90;;;;;;5052537;28;20447;-48
2023/10/18 05:18:44;;;;;;;17.93;11.20;;;2.30;99.90;;;;;;5051752;28;20254;-47
2023/10/18 05:21:20;;;;;;;17.00;10.97;;;2.40;99.90;;;;;;5040982;28;20475;-47
2023/10/18 05:23:46;;;;;;;15.90;10.33;;;2.30;99.90;;;;;;5039561;28;20998;-47
2023/10/18 05:26:18;;;;;;;17.53;11.67;;;2.40;99.90;;;;;;5033453;28;20508;-47
2023/10/18 05:28:52;;;;;;;16.97;11.77;;;2.40;99.90;;;;;;5033158;28;20180;-47
2023/10/18 05:34:04;;;;;;;18.17;10.33;;;2.30;99.90;;;;;;5052826;28;20419;-47
2023/10/18 05:36:54;;;;;;;20.63;10.80;;;2.20;99.90;;;;;;5053203;28;20425;-47
2023/10/18 05:42:13;;;;;;;16.03;12.50;;;2.20;99.90;;;;;;5051894;28;20565;-47
2023/10/18 05:44:39;;;;;;;15.47;10.53;;;2.20;99.90;;;;;;5052703;28;20444;-47
2023/10/18 05:47:06;;;;;;;16.40;10.90;;;2.20;99.90;;;;;;5053652;28;20434;-48
2023/10/18 05:49:40;;;;;;;12.03;9.40;;;2.20;99.90;;;;;;5056253;28;20670;-47
2023/10/18 05:54:37;;;;;;;19.23;11.50;;;2.20;99.90;;;;;;5054853;28;20451;-47
2023/10/18 05:57:05;;;;;;;17.87;11.53;;;2.20;99.90;;;;;;5054851;28;20440;-48
2023/10/18 06:02:23;;;;;;;23.87;10.57;;;2.20;99.90;;;;;;5056851;28;20605;-47
2023/10/18 06:04:45;;;;;;;19.73;11.87;;;2.20;99.90;;;;;;5053381;28;20259;-47
2023/10/18 06:07:12;;;;;;;16.27;10.17;;;2.20;99.90;;;;;;5043900;28;20928;-47
2023/10/18 06:09:46;;;;;;;19.60;11.23;;;2.30;99.90;;;;;;5036672;28;20183;-47
2023/10/18 06:12:22;;;;;;;15.00;10.63;;;2.30;99.90;;;;;;5036476;28;20465;-48
2023/10/18 06:14:51;;;;;;;16.77;9.23;;;2.40;99.90;;;;;;5036195;28;20416;-47
2023/10/18 06:17:22;;;;;;;18.00;10.87;;;2.50;99.90;;;;;;5049405;28;20440;-47
2023/10/18 06:19:50;;;;;;;12.70;10.33;;;2.50;99.90;;;;;;5056562;28;20413;-47
2023/10/18 06:22:27;;;;;;;21.53;10.93;;;2.60;99.90;;;;;;5056500;28;20469;-48
2023/10/18 06:24:55;;;;;;;17.27;10.40;;;2.60;99.90;;;;;;5054880;28;20449;-48
2023/10/18 06:27:21;;;;;;;17.90;10.80;;;2.70;99.90;;;;;;5054726;28;20807;-48
2023/10/18 06:29:51;;;;;;;14.13;10.00;;;2.70;99.90;;;;;;5056089;28;20417;-47
2023/10/18 06:32:22;;;;;;;16.67;10.33;;;2.70;99.90;;;;;;5054934;28;20536;-47
2023/10/18 06:34:49;;;;;;;14.90;9.57;;;2.70;99.90;;;;;;5054774;28;20443;-48
2023/10/18 06:37:22;;;;;;;16.50;10.80;;;2.80;99.90;;;;;;5054556;28;20469;-47
2023/10/18 06:39:51;;;;;;;16.13;10.00;;;2.90;99.90;;;;;;5053880;28;20432;-48
2023/10/18 06:42:17;;;;;;;16.27;9.90;;;3.00;99.90;;;;;;5055330;28;20468;-47
2023/10/18 06:44:43;;;;;;;16.03;9.40;;;3.00;99.90;;;;;;5055714;28;20817;-48
2023/10/18 06:47:13;;;;;;;12.60;9.50;;;3.10;99.90;;;;;;5055442;28;20424;-47
2023/10/18 06:49:42;;;;;;;16.87;9.23;;;3.20;99.90;;;;;;5045406;28;20203;-48
2023/10/18 06:52:09;;;;;;;23.43;11.60;;;3.30;99.90;;;;;;5052309;28;20970;-49
2023/10/18 06:54:38;;;;;;;16.77;10.60;;;3.40;99.90;;;;;;5055360;28;20479;-47
2023/10/18 06:57:26;;;;;;;15.03;9.73;;;3.60;99.90;;;;;;5054491;28;20439;-48
2023/10/18 06:59:54;;;;;;;15.67;10.33;;;3.70;99.90;;;;;;5055901;28;20434;-47
2023/10/18 07:02:26;;;;;;;23.10;10.17;;;3.80;99.90;;;;;;5054685;28;20484;-47
2023/10/18 07:04:56;;;;;;;22.73;9.23;;;3.80;99.90;;;;;;5055070;28;20408;-47
2023/10/18 07:07:23;;;;;;;13.33;8.53;;;4.00;99.90;;;;;;5054882;28;20420;-47
2023/10/18 07:09:53;;;;;;;17.77;9.27;;;4.10;99.90;;;;;;5054942;28;20921;-47
2023/10/18 07:12:19;;;;;;;13.17;8.80;;;4.20;99.90;;;;;;5054555;28;20408;-47
2023/10/18 07:14:46;;;;;;;14.87;9.63;;;4.30;99.90;;;;;;5054729;28;20416;-47
2023/10/18 07:17:13;;;;;;;19.07;10.60;;;4.40;99.90;;;;;;5054462;28;20496;-47
2023/10/18 07:19:49;;;;;;;31.63;10.93;;;4.50;99.90;;;;;;5054684;28;20413;-47
2023/10/18 07:22:19;;;;;;;15.20;9.97;;;4.60;99.90;;;;;;5054590;28;20868;-47
2023/10/18 07:24:59;;;;;;;16.27;10.10;;;4.80;99.90;;;;;;5054620;28;20421;-47
2023/10/18 07:27:29;;;;;;;15.50;10.83;;;4.90;99.90;;;;;;5054571;28;20419;-47
2023/10/18 07:29:58;;;;;;;16.33;10.20;;;5.00;99.90;;;;;;5054538;28;20421;-47
2023/10/18 07:32:24;;;;;;;14.67;10.20;;;5.10;99.90;;;;;;5054436;28;20419;-47
2023/10/18 07:34:54;;;;;;;15.80;9.60;;;5.30;99.90;;;;;;5054140;28;20503;-47
2023/10/18 07:37:32;;;;;;;20.03;9.80;;;5.50;99.90;;;;;;5054387;28;20210;-47
2023/10/18 07:39:59;;;;;;;20.23;10.17;;;5.80;99.90;;;;;;5054339;28;20415;-47
2023/10/18 07:42:34;;;;;;;18.17;11.13;;;6.20;99.90;;;;;;5054164;28;20487;-47
2023/10/18 07:45:04;;;;;;;19.80;11.17;;;6.80;99.90;;;;;;5054273;28;20500;-47
2023/10/18 07:47:32;;;;;;;12.73;9.07;;;7.80;99.90;;;;;;5054187;28;20435;-47
2023/10/18 07:50:00;;;;;;;12.30;8.30;;;8.90;99.90;;;;;;5053924;28;20420;-47
2023/10/18 07:52:26;;;;;;;13.63;7.43;;;10.00;99.90;;;;;;5054146;28;20832;-47
2023/10/18 07:54:52;;;;;;;9.83;6.57;;;10.40;99.90;;;;;;5053727;28;20905;-48
2023/10/18 07:57:18;;;;;;;9.70;7.10;;;11.00;99.90;;;;;;5053952;28;20426;-47
2023/10/18 07:59:46;;;;;;;10.40;6.40;;;11.60;99.90;;;;;;5054019;28;20182;-47
2023/10/18 08:02:13;;;;;;;9.20;6.90;;;12.00;74.70;;;;;;5053798;28;20472;-47
2023/10/18 08:04:43;;;;;;;11.10;6.83;;;13.30;11.70;;;;;;5053876;28;20439;-47
2023/10/18 08:07:12;;;;;;;13.80;7.47;;;12.90;1.00;;;;;;5053547;28;20459;-45
2023/10/18 08:09:41;;;;;;;13.97;6.90;;;13.30;1.00;;;;;;5053502;28;21051;-46
2023/10/18 08:12:09;;;;;;;13.13;7.40;;;13.40;1.00;;;;;;5053312;28;20490;-46
2023/10/18 08:14:35;;;;;;;10.93;7.13;;;14.00;1.00;;;;;;5053426;28;20413;-46
2023/10/18 08:17:29;;;;;;;15.97;8.10;;;13.50;1.00;;;;;;5053402;28;20979;-47
2023/10/18 08:20:55;;;;;;;11.27;7.10;;;13.60;1.00;;;;;;5053637;28;20440;-47
2023/10/18 08:22:45;;;;;;;12.37;7.30;;;13.30;1.00;;;;;;5042471;28;20495;-47
2023/10/18 08:25:31;;;;;;;15.00;7.90;;;12.40;1.00;;;;;;5053607;28;20755;-47
2023/10/18 08:27:57;;;;;;;15.27;7.97;;;11.80;1.00;;;;;;5053487;28;20413;-47
2023/10/18 08:30:24;;;;;;;14.67;7.67;;;11.30;1.00;;;;;;5053304;28;20457;-47
2023/10/18 08:32:52;;;;;;;15.30;7.40;;;10.80;1.00;;;;;;5053737;28;20429;-47
2023/10/18 08:35:20;;;;;;;11.10;7.57;;;10.40;1.00;;;;;;5053397;28;20417;-47
2023/10/18 08:37:46;;;;;;;10.50;7.77;;;10.10;1.00;;;;;;5053431;28;20409;-46
2023/10/18 08:40:17;;;;;;;9.70;6.77;;;9.80;1.00;;;;;;5052965;28;20916;-47
2023/10/18 08:42:51;;;;;;;15.00;8.13;;;9.60;1.00;;;;;;5053398;28;20435;-46
2023/10/18 08:45:23;;;;;;;16.80;7.73;;;9.40;1.00;;;;;;5053329;28;20396;-47
2023/10/18 08:47:56;;;;;;;11.13;7.50;;;9.20;1.00;;;;;;5053334;28;20547;-46
2023/10/18 08:50:24;;;;;;;12.83;7.00;;;9.00;1.00;;;;;;5053064;28;20486;-46
2023/10/18 08:52:50;;;;;;;15.63;7.40;;;8.90;1.00;;;;;;5053326;28;20475;-47
2023/10/18 08:55:22;;;;;;;11.13;6.87;;;8.90;5.80;;;;;;5053224;28;20895;-47
2023/10/18 08:57:55;;;;;;;11.13;7.27;;;8.90;11.00;;;;;;5053249;28;20442;-46
2023/10/18 09:02:53;;;;;;;11.90;6.67;;;8.90;36.00;;;;;;5053208;28;20502;-46
2023/10/18 09:05:23;;;;;;;17.50;7.57;;;9.00;53.80;;;;;;5053165;28;20416;-47
2023/10/18 09:08:03;;;;;;;13.17;7.10;;;9.00;42.60;;;;;;5053169;28;20448;-46
2023/10/18 09:18:29;;;;;;;10.63;6.90;;;9.30;1.00;;;;;;5053095;28;20762;-46
2023/10/18 09:20:55;;;;;;;9.97;6.63;;;9.30;1.00;;;;;;5053120;28;20456;-47
2023/10/18 09:23:24;;;;;;;12.00;6.47;;;9.40;1.00;;;;;;5054519;28;20905;-46
2023/10/18 09:25:51;;;;;;;7.97;6.10;;;9.60;1.00;;;;;;5056825;28;20465;-46
2023/10/18 09:28:25;;;;;;;6.97;5.80;;;9.60;1.00;;;;;;5056805;28;20510;-46
2023/10/18 09:31:12;;;;;;;8.67;5.70;;;9.70;1.00;;;;;;5056852;28;20413;-47
2023/10/18 09:33:40;;;;;;;6.10;4.70;;;9.80;1.00;;;;;;5056436;28;20423;-46
2023/10/18 09:36:20;;;;;;;10.27;5.33;;;9.80;1.00;;;;;;5056734;28;20415;-46
2023/10/18 09:38:48;;;;;;;8.57;4.40;;;10.00;1.00;;;;;;5056354;28;20406;-46
2023/10/18 09:41:15;;;;;;;6.13;4.57;;;10.00;1.00;;;;;;5056230;28;21080;-46
2023/10/18 09:43:40;;;;;;;5.77;4.33;;;10.10;1.00;;;;;;5056556;28;20411;-46
2023/10/18 09:46:07;;;;;;;7.63;4.40;;;10.20;1.00;;;;;;5056492;28;20431;-46
2023/10/18 09:48:38;;;;;;;8.73;4.60;;;10.30;1.00;;;;;;5056526;28;20197;-46
2023/10/18 09:51:08;;;;;;;6.83;4.30;;;10.40;1.00;;;;;;5056078;28;20498;-46
2023/10/18 09:53:43;;;;;;;6.30;4.50;;;10.50;1.00;;;;;;5056781;28;20939;-46
2023/10/18 09:56:13;;;;;;;5.43;4.60;;;10.70;1.00;;;;;;5056412;28;20758;-46
2023/10/18 09:58:44;;;;;;;7.13;4.60;;;10.80;1.00;;;;;;5055954;28;20433;-46
2023/10/18 10:01:14;;;;;;;6.87;4.40;;;11.10;1.00;;;;;;5055967;28;20479;-46
2023/10/18 10:03:52;;;;;;;4.90;4.30;;;11.30;1.00;;;;;;5056134;28;20432;-46
2023/10/18 10:06:25;;;;;;;9.10;5.00;;;11.50;1.00;;;;;;5056148;28;20474;-46
2023/10/18 10:08:55;;;;;;;8.77;4.33;;;11.70;1.00;;;;;;5055861;28;20785;-47
2023/10/18 10:11:24;;;;;;;5.47;4.40;;;12.00;1.00;;;;;;5055996;28;20416;-46
2023/10/18 10:13:51;;;;;;;12.90;5.27;;;12.20;1.00;;;;;;5055677;28;20748;-46
2023/10/18 10:16:24;;;;;;;6.97;4.90;;;12.30;1.00;;;;;;5055942;28;20424;-46
2023/10/18 10:18:52;;;;;;;11.53;4.13;;;12.50;1.00;;;;;;5055656;28;20487;-46
2023/10/18 10:21:21;;;;;;;7.10;3.77;;;12.90;1.00;;;;;;5055760;28;20469;-46
2023/10/18 10:23:51;;;;;;;5.90;3.60;;;13.50;1.00;;;;;;5055773;28;20602;-46
2023/10/18 10:26:22;;;;;;;4.90;3.97;;;14.30;1.00;;;;;;5055790;28;20414;-47
2023/10/18 10:31:58;;;;;;;3.87;3.20;;;15.30;1.00;;;;;;5055757;28;20398;-47
2023/10/18 10:34:32;;;;;;;5.17;3.40;;;16.10;1.00;;;;;;5055325;28;20462;-47
2023/10/18 10:37:12;;;;;;;6.17;3.17;;;16.70;1.00;;;;;;5055682;28;20415;-47
2023/10/18 10:39:49;;;;;;;6.60;3.23;;;17.00;1.00;;;;;;5055446;28;20424;-47
2023/10/18 10:42:41;;;;;;;3.13;2.83;;;17.20;1.00;;;;;;5055394;28;20472;-47
2023/10/18 10:45:14;;;;;;;5.60;3.60;;;16.90;1.00;;;;;;5055388;28;20547;-47
2023/10/18 10:47:43;;;;;;;6.47;3.37;;;17.00;1.00;;;;;;5055735;28;20450;-47
2023/10/18 10:50:10;;;;;;;5.53;3.47;;;17.60;1.00;;;;;;5055014;28;20794;-47
2023/10/18 10:52:40;;;;;;;4.13;3.60;;;17.70;1.00;;;;;;5055326;28;20507;-47
2023/10/18 10:55:22;;;;;;;8.20;3.20;;;17.70;1.00;;;;;;5055037;28;20491;-47
2023/10/18 10:57:49;;;;;;;8.77;3.40;;;17.90;1.00;;;;;;5055148;28;20417;-48
2023/10/18 11:00:36;;;;;;;6.53;3.70;;;18.30;1.00;;;;;;5054678;28;20507;-47
2023/10/18 11:03:24;;;;;;;4.63;3.33;;;18.40;1.00;;;;;;5054756;28;20413;-47
2023/10/18 11:05:53;;;;;;;5.33;3.50;;;18.80;1.00;;;;;;5054994;28;20508;-47
2023/10/18 11:08:19;;;;;;;5.27;3.30;;;18.90;1.00;;;;;;5054928;28;20512;-48
2023/10/18 11:10:45;;;;;;;3.90;3.27;;;19.20;1.00;;;;;;5054589;28;20509;-47
2023/10/18 11:13:13;;;;;;;4.87;3.67;;;19.60;1.00;;;;;;5055192;28;20206;-47
2023/10/18 11:15:42;;;;;;;3.30;3.00;;;19.90;1.00;;;;;;5054743;28;20418;-47
2023/10/18 11:18:20;;;;;;;6.03;3.90;;;20.20;1.00;;;;;;5054733;28;20901;-48
2023/10/18 11:20:48;;;;;;;6.60;3.80;;;20.70;1.00;;;;;;5054523;28;20949;-48
2023/10/18 11:23:14;;;;;;;3.00;2.70;;;21.20;1.00;;;;;;5054683;28;20425;-48
2023/10/18 11:25:41;;;;;;;3.27;3.00;;;21.40;1.00;;;;;;5054317;28;20975;-48
2023/10/18 11:28:20;;;;;;;3.10;2.80;;;21.10;1.00;;;;;;5054523;28;20533;-48
2023/10/18 11:30:46;;;;;;;6.20;3.07;;;20.70;1.00;;;;;;5054331;28;20406;-47
2023/10/18 11:33:21;;;;;;;4.47;3.40;;;20.50;1.00;;;;;;5054112;28;20918;-48
2023/10/18 11:35:48;;;;;;;4.03;3.63;;;20.50;1.00;;;;;;5054440;28;20408;-48
2023/10/18 11:38:19;;;;;;;5.10;3.57;;;20.50;1.00;;;;;;5054417;28;20445;-48
2023/10/18 11:40:51;;;;;;;5.47;3.70;;;20.40;1.00;;;;;;5054340;28;20457;-48
2023/10/18 11:43:25;;;;;;;5.23;3.40;;;20.30;1.00;;;;;;5054217;28;20421;-47
2023/10/18 11:46:05;;;;;;;4.90;3.43;;;20.10;1.00;;;;;;5053509;28;20417;-48
2023/10/18 11:48:34;;;;;;;4.27;3.17;;;19.90;1.00;;;;;;5054248;28;20434;-48
2023/10/18 11:51:02;;;;;;;4.37;3.40;;;20.00;1.00;;;;;;5053990;28;20523;-48
2023/10/18 11:53:28;;;;;;;3.20;2.90;;;20.30;1.00;;;;;;5054090;28;20453;-48
2023/10/18 11:55:58;;;;;;;4.93;3.03;;;20.60;1.00;;;;;;5054094;28;20448;-48
2023/10/18 11:58:26;;;;;;;4.03;3.67;;;20.90;1.00;;;;;;5053717;28;20428;-48
2023/10/18 12:00:58;;;;;;;3.53;3.20;;;21.00;1.00;;;;;;5053905;28;20453;-48
2023/10/18 12:03:27;;;;;;;5.70;4.00;;;20.70;1.00;;;;;;5053951;28;20417;-48
2023/10/18 12:05:54;;;;;;;7.17;4.20;;;20.40;1.00;;;;;;5053836;28;20418;-48
2023/10/18 12:08:23;;;;;;;5.67;4.00;;;19.90;1.00;;;;;;5053536;28;20956;-48
2023/10/18 12:10:49;;;;;;;3.77;3.20;;;19.30;1.00;;;;;;5053806;28;20413;-47
2023/10/18 12:13:17;;;;;;;3.57;3.27;;;19.40;1.00;;;;;;5053769;28;20812;-47
2023/10/18 12:15:43;;;;;;;5.70;3.30;;;19.90;1.00;;;;;;5053749;28;20409;-47
2023/10/18 12:18:09;;;;;;;4.07;3.67;;;20.20;1.00;;;;;;5053640;28;20413;-48
2023/10/18 12:20:36;;;;;;;4.80;3.77;;;20.40;1.00;;;;;;5053290;28;20547;-48
2023/10/18 12:23:13;;;;;;;4.53;3.73;;;20.50;1.00;;;;;;5053623;28;20571;-48
2023/10/18 12:25:44;;;;;;;4.10;3.20;;;20.90;1.00;;;;;;5053660;28;20405;-48
2023/10/18 12:28:15;;;;;;;3.13;2.90;;;20.90;1.00;;;;;;5054183;28;20515;-48
2023/10/18 12:30:51;;;;;;;4.47;3.30;;;20.90;1.00;;;;;;5054064;28;20462;-48
2023/10/18 12:33:23;;;;;;;5.50;3.97;;;20.90;1.00;;;;;;5053589;28;20979;-47
2023/10/18 12:35:51;;;;;;;4.17;3.40;;;20.70;1.00;;;;;;5053861;28;20420;-47
2023/10/18 12:38:21;;;;;;;3.90;3.50;;;20.90;1.00;;;;;;5054242;28;20426;-48
2023/10/18 12:40:52;;;;;;;5.13;3.37;;;20.90;1.00;;;;;;5053689;28;20489;-48
2023/10/18 12:43:19;;;;;;;5.93;3.43;;;20.90;1.00;;;;;;5053885;28;20429;-48
2023/10/18 12:45:49;;;;;;;6.90;3.20;;;20.30;1.00;;;;;;5053962;28;20463;-49
2023/10/18 12:48:21;;;;;;;9.20;3.37;;;20.40;1.00;;;;;;5035629;28;20422;-48
2023/10/18 12:50:51;;;;;;;4.40;3.60;;;20.30;1.00;;;;;;5053240;28;20480;-49
2023/10/18 12:56:16;;;;;;;5.07;3.63;;;20.20;1.00;;;;;;5053738;28;20401;-47
2023/10/18 12:58:48;;;;;;;4.30;3.40;;;20.20;1.00;;;;;;5057637;28;20445;-47
2023/10/18 13:01:14;;;;;;;4.20;3.80;;;20.20;1.00;;;;;;5057841;28;20458;-48
2023/10/18 13:03:56;;;;;;;3.27;2.97;;;19.90;1.00;;;;;;5057693;28;20500;-48
2023/10/18 13:06:31;;;;;;;4.33;3.87;;;19.50;1.00;;;;;;5057643;28;20401;-48
2023/10/18 13:09:15;;;;;;;9.80;4.00;;;19.40;1.00;;;;;;5057604;28;20405;-48
2023/10/18 13:11:52;;;;;;;5.73;3.90;;;19.30;1.00;;;;;;5057619;28;20408;-49
2023/10/18 13:14:31;;;;;;;4.23;3.93;;;19.10;1.00;;;;;;5057611;28;20779;-48
2023/10/18 13:17:03;;;;;;;4.67;4.20;;;18.60;1.00;;;;;;5057267;28;20866;-50
2023/10/18 13:19:28;;;;;;;4.77;3.87;;;18.00;1.00;;;;;;5057150;28;20402;-48
2023/10/18 13:21:55;;;;;;;6.73;4.20;;;17.70;1.00;;;;;;5057274;28;20460;-49
2023/10/18 13:26:54;;;;;;;5.83;4.30;;;17.20;1.00;;;;;;5056992;28;20413;-49
2023/10/18 13:31:49;;;;;;;5.73;4.50;;;16.40;1.00;;;;;;5057164;28;20466;-49
2023/10/18 13:34:21;;;;;;;4.30;3.90;;;16.20;1.00;;;;;;5057159;28;20451;-49
2023/10/18 13:36:51;;;;;;;6.13;5.10;;;16.10;1.00;;;;;;5056448;28;20410;-49
2023/10/18 13:39:18;;;;;;;6.83;4.97;;;15.90;1.00;;;;;;5056988;28;20424;-49
2023/10/18 13:41:47;;;;;;;4.30;3.90;;;15.90;1.00;;;;;;5056786;28;20465;-48
2023/10/18 13:44:20;;;;;;;5.03;4.30;;;16.10;1.00;;;;;;5056634;28;20435;-48
2023/10/18 13:46:55;;;;;;;4.70;4.30;;;16.30;1.00;;;;;;5057188;28;20409;-48
2023/10/18 13:49:25;;;;;;;5.17;4.07;;;16.50;1.00;;;;;;5057328;28;20426;-48